Flight Track Log - Related Links

Times and Time Zones

All times are in EDT time to prevent confusion due to time zone crossing. See the N974RK flight status page for this flight to view local times or setup timezone preferences in your user account.

Time Position Orientation Groundspeed Altitude Reporting Facility
EDT Latitude Longitude Course Direction KTS MPH feet Rate Location/Type
Sun 09:11:31 PM 30.5047 -97.5408 14° North 147 169 2,800  Level Houston Center
Sun 09:12:44 PM 30.5456 -97.5286 14° North 138 159 3,500 514 Climbing Houston Center
Sun 09:13:16 PM 30.5669 -97.5250 North 134 154 3,700 590 Climbing Houston Center
Sun 09:13:45 PM 30.5806 -97.5219 11° North 127 146 4,100 581 Climbing Houston Center
Sun 09:14:18 PM 30.5994 -97.5183 North 126 145 4,300 500 Climbing Houston Center
Sun 09:14:45 PM 30.6114 -97.5133 20° North 116 133 4,600 492 Climbing Houston Center
Sun 09:15:19 PM 30.6325 -97.5086 11° North 125 144 4,800 442 Climbing Houston Center
Sun 09:16:20 PM 30.6636 -97.5000 13° North 118 136 5,300 341 Climbing Houston Center
Sun 09:17:22 PM 30.6975 -97.4892 15° North 119 137 5,500 98 Climbing Houston Center
Sun 09:18:23 PM 30.7464 -97.4753 14° North 140 161 5,500  Level Houston Center
Sun 09:19:24 PM 30.7847 -97.4650 13° North 143 165 5,500  Level Houston Center
Sun 09:20:25 PM 30.8231 -97.4542 14° North 143 165 5,500  Level Houston Center
Sun 09:21:26 PM 30.8606 -97.4436 14° North 143 165 5,500  Level Houston Center
Sun 09:22:28 PM 30.8978 -97.4342 12° North 142 163 5,500  Level Fort Worth Center
Sun 09:23:30 PM 30.9358 -97.4228 14° North 142 163 5,500  Level Fort Worth Center
Sun 09:24:31 PM 30.9733 -97.4128 13° North 141 162 5,500  Level Fort Worth Center
Sun 09:25:33 PM 31.0106 -97.4019 14° North 141 162 5,500  Level Fort Worth Center
Sun 09:26:34 PM 31.0483 -97.3919 13° North 141 162 5,500  Level Fort Worth Center
Sun 09:27:36 PM 31.0858 -97.3811 14° North 141 162 5,500  Level Fort Worth Center
Sun 09:28:38 PM 31.1228 -97.3700 14° North 141 162 5,500  Level Fort Worth Center
Sun 09:29:39 PM 31.1686 -97.3575 13° North 141 162 5,500  Level Fort Worth Center
Sun 09:30:41 PM 31.2058 -97.3464 14° North 140 161 5,500  Level Fort Worth Center
Sun 09:30:58 PM 31.2158 -97.3433 15° North 138 159 5,500  Level Fort Worth Center
Sun 09:31:42 PM 31.2428 -97.3356 14° North 140 161 5,500  Level Fort Worth Center
Sun 09:32:44 PM 31.2800 -97.3250 14° North 140 161 5,500  Level Fort Worth Center
Sun 09:33:45 PM 31.3164 -97.3147 14° North 139 160 5,500  Level Fort Worth Center
Sun 09:34:47 PM 31.3517 -97.3050 13° North 136 157 5,500  Level Fort Worth Center
Sun 09:34:59 PM 31.3628 -97.3003 20° North 131 151 5,500  Level Fort Worth Center
Sun 09:35:48 PM 31.3872 -97.2947 11° North 135 155 5,500  Level Fort Worth Center
Sun 09:36:50 PM 31.4239 -97.2847 13° North 135 155 5,500  Level Fort Worth Center
Sun 09:37:51 PM 31.4692 -97.2711 14° North 136 157 5,500  Level Fort Worth Center
Sun 09:38:59 PM 31.5100 -97.2597 13° North 137 158 5,500  Level Fort Worth Center
Sun 09:39:54 PM 31.5450 -97.2497 14° North 137 158 5,500  Level Fort Worth Center
Sun 09:40:55 PM 31.5828 -97.2389 14° North 137 158 5,500  Level Fort Worth Center
Sun 09:41:57 PM 31.6208 -97.2283 13° North 137 158 5,500  Level Fort Worth Center
Sun 09:42:58 PM 31.6581 -97.2167 15° North 138 159 5,500  Level Fort Worth Center
Sun 09:44:00 PM 31.6956 -97.2067 13° North 138 159 5,500  Level Fort Worth Center
Sun 09:45:01 PM 31.7328 -97.1958 14° North 138 159 5,500  Level Fort Worth Center
Sun 09:46:02 PM 31.7708 -97.1850 14° North 138 159 5,500  Level Fort Worth Center
Sun 09:46:36 PM 31.7981 -97.1792 10° North 138 159 5,500  Level Fort Worth Center
Sun 09:47:04 PM 31.8161 -97.1719 19° North 138 159 5,500  Level Fort Worth Center
Sun 09:48:05 PM 31.8539 -97.1608 14° North 138 159 5,500  Level Fort Worth Center
Sun 09:49:07 PM 31.8900 -97.1511 13° North 138 159 5,500  Level Fort Worth Center
Sun 09:50:12 PM 31.9308 -97.1403 13° North 136 157 5,500  Level Fort Worth Center
Sun 09:51:09 PM 31.9631 -97.1289 17° North 135 155 5,500  Level Fort Worth Center
Sun 09:52:11 PM 31.9986 -97.1203 12° North 135 155 5,500  Level Fort Worth Center
Sun 09:53:12 PM 32.0439 -97.1061 15° North 136 157 5,500 49 Level Fort Worth Center
Sun 09:54:13 PM 32.0817 -97.0961 13° North 140 161 5,600  Climbing Fort Worth Center
Sun 09:55:15 PM 32.1189 -97.0836 16° North 137 158 5,500 -33 Descending Fort Worth Center
Sun 09:57:17 PM 32.1947 -97.0631 13° North 138 159 5,500  Level Fort Worth Center
Sun 09:58:19 PM 32.2364 -97.0506 14° North 138 159 5,500 49 Level Fort Worth Center
Sun 09:59:20 PM 32.2753 -97.0392 14° North 141 162 5,600 -244 Climbing Fort Worth Center
Sun 10:00:22 PM 32.3169 -97.0275 13° North 157 181 5,000 -732 Descending Fort Worth Center
Sun 10:01:23 PM 32.3672 -97.0122 14° North 170 196 4,100 -689 Descending Fort Worth Center
Sun 10:02:24 PM 32.4144 -96.9992 13° North 173 199 3,600 -244 Descending Fort Worth Center
Sun 10:03:26 PM 32.4569 -96.9861 15° North 160 184 3,600  Level Fort Worth Center
Sun 10:04:27 PM 32.4986 -96.9753 12° North 149 171 3,600  Level Fort Worth Center
Sun 10:05:28 PM 32.5375 -96.9642 14° North 146 168 3,600  Level Fort Worth Center
Sun 10:06:30 PM 32.5758 -96.9533 13° North 144 166 3,600  Level Fort Worth Center
Sun 10:07:31 PM 32.6178 -96.9408 14° North 143 165 3,600  Level Fort Worth Center
Sun 10:08:33 PM 32.6553 -96.9297 14° North 142 163 3,600  Level Fort Worth Center
Sun 10:09:34 PM 32.6944 -96.9186 13° North 143 165 3,600  Level Fort Worth Center
Sun 10:10:35 PM 32.7350 -96.9072 13° North 142 163 3,600  Level Fort Worth Center
Sun 10:11:37 PM 32.7728 -96.8939 17° North 143 165 3,600 -146 Level Fort Worth Center
Sun 10:12:38 PM 32.8028 -96.8614 42° Northeast 143 165 3,300 -246 Descending Fort Worth Center
Sun 10:13:39 PM 32.8456 -96.8558 North 163 188 3,100 -98 Descending Fort Worth Center
Sun 10:14:40 PM 32.8881 -96.8583 357° North 156 180 3,100  Level Fort Worth Center
Sun 10:15:42 PM 32.9325 -96.8583 360° North 151 174 3,100 -341 Level Fort Worth Center
Sun 10:16:43 PM 32.9708 -96.8564 North 141 162 2,400 -492 Descending Fort Worth Center
Sun 10:17:44 PM 33.0050 -96.8594 356° North 126 145 2,100 -390 Descending Fort Worth Center
Sun 10:18:46 PM 33.0228 -96.8478 29° Northeast 111 128 1,600 -488 Descending Fort Worth Center
Sun 10:19:47 PM 33.0003 -96.8494 184° South 72 83 1,100 -393 Descending Fort Worth Center
Sun 10:20:48 PM 32.9831 -96.8428 162° South 69 79 800 -295 Descending Fort Worth Center

Login

Don't have an account? Register now (free) for customized features, flight alerts, and more!